Roswell International Air Center Airport Roswell US
ICAO: KROW
IATA: ROW
Category: Medium
Scheduled Services: Yes

Elevation: 3671 ft
TransAlt. 18000 ft.

Airport Communications:
APP/DEP:119.6
ATIS:128.45
CLNC DEL:132.875
CTAF:118.5
GND:121.9
ALBUQUERQUE RDO:122.45
TWR:118.5
UNICOM:122.95

KROW Zoom In..

If you have problems with the map follow the link
https://www.worldairports.se/pages/airport.php?
ICAO=KROW

Runways:

(A) RW 03 length 13001 ft width 150 ft
---- / hdg 35

(B) RW 17 length 9999 ft width 100 ft
---- / hdg 170

(C) RW 21 length 13001 ft width 150 ft
ILS 109.90 / hdg 215

(D) RW 35 length 9999 ft width 100 ft
---- / hdg 350

Location; KROW
Day. 14 / Time. 16.51 Zulu
* Altimeter: 29.84
* Temperature: 10° c. 50°f.
* Wind from: 020° Speed 07 kn.
Dewpoint: -01° c.
Visibility: 10 Statute Miles.
Clouds: Clear (automated report).

KROW 141651Z 02007KT 10SM CLR 10/M01 A2984 RMK AO2 SLP073 T01001011


Wind From 020°
Speed 07 kn.

 
 
jpsmedia worldairports.se 2019   terms of use